createdAt,value
2023-04-12T00:00:17.838Z,16.70
2023-04-12T00:01:41.498Z,17.30
2023-04-12T00:02:45.492Z,19.40
2023-04-12T00:03:51.159Z,17.80
2023-04-12T00:04:57.601Z,17.70
2023-04-12T00:06:03.566Z,18.00
2023-04-12T00:07:06.694Z,18.60
2023-04-12T00:08:10.892Z,18.30
2023-04-12T00:09:14.596Z,17.20
2023-04-12T00:10:17.532Z,17.70
2023-04-12T00:11:20.895Z,18.90
2023-04-12T00:12:24.152Z,17.70
2023-04-12T00:13:27.034Z,16.90
2023-04-12T00:14:30.037Z,16.30
2023-04-12T00:15:32.940Z,17.60
2023-04-12T00:16:37.166Z,17.80
2023-04-12T00:17:40.357Z,15.50
2023-04-12T00:18:45.891Z,14.80
2023-04-12T00:19:50.178Z,15.40
2023-04-12T00:20:53.364Z,15.50
2023-04-12T00:21:56.665Z,13.80
2023-04-12T00:22:59.494Z,13.50
2023-04-12T00:24:02.424Z,11.80
2023-04-12T00:25:06.698Z,11.80
2023-04-12T00:26:09.612Z,11.90
2023-04-12T00:27:13.318Z,12.10
2023-04-12T00:28:16.348Z,11.50
2023-04-12T00:29:19.742Z,12.40
2023-04-12T00:30:24.010Z,11.40
2023-04-12T00:31:27.003Z,11.50
2023-04-12T00:32:30.002Z,10.90
2023-04-12T00:33:34.346Z,13.10
2023-04-12T00:34:37.181Z,10.80
2023-04-12T00:35:40.060Z,11.50
2023-04-12T00:36:43.350Z,10.10
2023-04-12T00:37:46.554Z,9.90
2023-04-12T00:38:49.445Z,10.70
2023-04-12T00:39:52.796Z,10.60
2023-04-12T00:40:55.950Z,12.90
2023-04-12T00:42:03.563Z,11.20
2023-04-12T00:43:06.538Z,10.80
2023-04-12T00:44:10.148Z,9.70
2023-04-12T00:45:14.465Z,12.30
2023-04-12T00:46:20.008Z,11.00
2023-04-12T00:47:23.075Z,10.40
2023-04-12T00:48:28.986Z,10.10
2023-04-12T00:49:34.372Z,10.10
2023-04-12T00:50:37.419Z,11.10
2023-04-12T00:51:40.626Z,9.00
2023-04-12T00:52:43.529Z,8.80
2023-04-12T00:53:46.511Z,9.40
2023-04-12T00:54:50.015Z,9.50
2023-04-12T00:55:53.301Z,9.00
2023-04-12T00:56:59.986Z,9.70
2023-04-12T00:58:03.651Z,9.10
2023-04-12T00:59:06.748Z,8.50
2023-04-12T01:00:13.879Z,8.40
2023-04-12T01:01:17.376Z,8.80
2023-04-12T01:02:20.559Z,8.40
2023-04-12T01:03:24.224Z,11.10
2023-04-12T01:04:28.904Z,8.30
2023-04-12T01:05:36.359Z,10.00
2023-04-12T01:07:05.304Z,7.50
2023-04-12T01:08:34.243Z,11.50
2023-04-12T01:10:05.024Z,7.50
2023-04-12T01:11:40.007Z,8.30
2023-04-12T01:13:07.645Z,7.70
2023-04-12T01:14:34.167Z,7.50
2023-04-12T01:15:45.670Z,11.40
2023-04-12T01:16:51.327Z,8.80
2023-04-12T01:18:00.034Z,9.20
2023-04-12T01:19:13.751Z,11.10
2023-04-12T01:20:23.579Z,9.50
2023-04-12T01:22:53.498Z,10.60
2023-04-12T01:24:14.111Z,12.80
2023-04-12T01:25:39.943Z,11.80
2023-04-12T01:26:48.533Z,13.80
2023-04-12T01:27:57.044Z,12.60
2023-04-12T01:29:03.172Z,14.30
2023-04-12T01:30:08.380Z,12.10
2023-04-12T01:31:14.022Z,12.30
2023-04-12T01:32:18.470Z,14.00
2023-04-12T01:33:22.234Z,14.40
2023-04-12T01:34:28.493Z,14.20
2023-04-12T01:35:34.638Z,16.50
2023-04-12T01:36:40.064Z,13.70
2023-04-12T01:37:43.988Z,14.50
2023-04-12T01:38:47.064Z,14.30
2023-04-12T01:39:50.564Z,15.30
2023-04-12T01:40:55.039Z,15.60
2023-04-12T01:41:57.921Z,17.40
2023-04-12T01:43:05.339Z,15.90
2023-04-12T01:44:08.596Z,16.60
2023-04-12T01:45:11.865Z,16.00
2023-04-12T01:46:22.799Z,17.40
2023-04-12T01:47:27.203Z,17.10
2023-04-12T01:48:30.254Z,18.50
2023-04-12T01:49:45.123Z,18.50
2023-04-12T01:51:06.498Z,20.00
2023-04-12T01:52:18.948Z,17.90
2023-04-12T01:53:48.881Z,21.40
2023-04-12T01:54:57.491Z,19.20
2023-04-12T01:56:07.417Z,22.90
2023-04-12T01:58:17.401Z,22.80
2023-04-12T01:59:24.371Z,20.70
2023-04-12T02:00:28.164Z,22.50
2023-04-12T02:01:31.574Z,24.70
2023-04-12T02:02:36.650Z,22.50
2023-04-12T02:03:43.175Z,24.10
2023-04-12T02:04:47.743Z,22.90
2023-04-12T02:05:52.313Z,25.70
2023-04-12T02:06:57.409Z,27.00
2023-04-12T02:08:02.943Z,22.60
2023-04-12T02:09:06.625Z,25.60
2023-04-12T02:10:14.777Z,24.80
2023-04-12T02:11:17.678Z,25.60
2023-04-12T02:12:20.834Z,24.50
2023-04-12T02:13:23.830Z,24.80
2023-04-12T02:14:27.190Z,28.70
2023-04-12T02:15:30.886Z,23.90
2023-04-12T02:16:35.951Z,24.50
2023-04-12T02:17:41.061Z,23.10
2023-04-12T02:18:44.920Z,27.00
2023-04-12T02:19:50.466Z,25.60
2023-04-12T02:20:55.703Z,23.90
2023-04-12T02:21:58.592Z,24.80
2023-04-12T02:23:01.578Z,24.30
2023-04-12T02:24:04.748Z,25.40
2023-04-12T02:25:08.008Z,28.30
2023-04-12T02:26:11.654Z,28.50
2023-04-12T02:27:14.563Z,24.40
2023-04-12T02:28:17.450Z,26.10
2023-04-12T02:29:20.328Z,23.30
2023-04-12T02:30:23.932Z,24.80
2023-04-12T02:31:30.639Z,27.50
2023-04-12T02:32:33.591Z,26.00
2023-04-12T02:33:37.181Z,26.30
2023-04-12T02:34:44.198Z,22.90
2023-04-12T02:35:52.572Z,22.70
2023-04-12T02:36:56.069Z,23.50
2023-04-12T02:37:58.984Z,22.90
2023-04-12T02:39:05.354Z,24.20
2023-04-12T02:40:11.612Z,22.60
2023-04-12T02:41:19.060Z,25.40
2023-04-12T02:42:21.965Z,24.90
2023-04-12T02:43:25.551Z,21.10
2023-04-12T02:45:47.688Z,26.20
2023-04-12T02:46:50.827Z,22.50
2023-04-12T02:47:55.893Z,27.20
2023-04-12T02:49:01.702Z,23.20
2023-04-12T02:50:09.427Z,24.00
2023-04-12T02:51:21.157Z,21.20
2023-04-12T02:52:25.764Z,24.20
2023-04-12T02:53:42.420Z,24.50
2023-04-12T02:54:57.368Z,23.10
2023-04-12T02:56:01.359Z,22.90
2023-04-12T02:57:05.414Z,23.20
2023-04-12T02:58:11.195Z,23.30
2023-04-12T02:59:18.744Z,23.10
2023-04-12T03:00:39.489Z,24.70
2023-04-12T03:01:46.940Z,25.10
2023-04-12T03:02:59.119Z,23.30
2023-04-12T03:04:04.231Z,23.70
2023-04-12T03:05:27.678Z,24.90
2023-04-12T03:06:32.119Z,28.00
2023-04-12T03:07:38.804Z,26.30
2023-04-12T03:08:42.148Z,24.00
2023-04-12T03:09:47.004Z,21.90
2023-04-12T03:10:56.169Z,24.70
2023-04-12T03:11:59.834Z,25.80
2023-04-12T03:13:05.002Z,22.40
2023-04-12T03:14:17.456Z,27.50
2023-04-12T03:15:23.507Z,24.10
2023-04-12T03:16:29.743Z,22.10
2023-04-12T03:17:41.227Z,22.10
2023-04-12T03:18:44.507Z,26.30
2023-04-12T03:19:49.259Z,23.90
2023-04-12T03:20:56.358Z,22.60
2023-04-12T03:22:00.065Z,21.10
2023-04-12T03:23:03.261Z,24.00
2023-04-12T03:24:07.336Z,23.40
2023-04-12T03:25:12.746Z,22.50
2023-04-12T03:26:20.633Z,20.70
2023-04-12T03:27:32.982Z,20.30
2023-04-12T03:28:36.293Z,24.00
2023-04-12T03:29:42.327Z,23.50
2023-04-12T03:30:46.163Z,23.10
2023-04-12T03:31:49.438Z,22.20
2023-04-12T03:32:52.407Z,24.20
2023-04-12T03:33:56.069Z,22.50
2023-04-12T03:35:00.424Z,25.50
2023-04-12T03:36:04.549Z,22.60
2023-04-12T03:37:07.578Z,21.00
2023-04-12T03:38:15.459Z,22.50
2023-04-12T03:39:18.930Z,21.90
2023-04-12T03:40:25.136Z,21.70
2023-04-12T03:41:33.789Z,23.10
2023-04-12T03:42:39.700Z,23.30
2023-04-12T03:43:50.444Z,23.40
2023-04-12T03:44:54.973Z,22.60
2023-04-12T03:45:58.545Z,23.80
2023-04-12T03:47:01.793Z,24.00
2023-04-12T03:48:12.009Z,27.00
2023-04-12T03:49:18.686Z,22.00
2023-04-12T03:50:23.317Z,22.30
2023-04-12T03:51:31.325Z,21.00
2023-04-12T03:52:40.348Z,23.70
2023-04-12T03:53:43.548Z,23.80
2023-04-12T03:54:50.258Z,22.00
2023-04-12T03:56:00.813Z,21.80
2023-04-12T03:57:07.363Z,21.60
2023-04-12T03:58:31.186Z,20.80
2023-04-12T03:59:34.338Z,21.80
2023-04-12T04:00:37.650Z,23.10
2023-04-12T04:01:43.557Z,22.30
2023-04-12T04:02:47.452Z,22.40
2023-04-12T04:03:51.162Z,21.40
2023-04-12T04:05:04.102Z,22.10
2023-04-12T04:06:08.290Z,24.40
2023-04-12T04:07:12.961Z,21.40
2023-04-12T04:08:17.685Z,22.30
2023-04-12T04:09:29.573Z,22.40
2023-04-12T04:10:33.414Z,25.00
2023-04-12T04:11:37.835Z,21.60
2023-04-12T04:12:42.334Z,23.50
2023-04-12T04:13:47.210Z,23.20
2023-04-12T04:14:54.372Z,21.70
2023-04-12T04:16:10.312Z,24.10
2023-04-12T04:17:14.941Z,21.20
2023-04-12T04:18:18.020Z,22.50
2023-04-12T04:19:21.707Z,21.70
2023-04-12T04:20:26.038Z,21.50
2023-04-12T04:21:30.802Z,21.90
2023-04-12T04:22:34.695Z,23.80
2023-04-12T04:23:38.988Z,22.40
2023-04-12T04:24:42.768Z,23.30
2023-04-12T04:25:46.391Z,22.70
2023-04-12T04:26:50.443Z,21.80
2023-04-12T04:28:02.858Z,21.90
2023-04-12T04:29:06.531Z,20.80
2023-04-12T04:30:15.360Z,21.50
2023-04-12T04:31:22.793Z,21.70
2023-04-12T04:32:26.494Z,19.30
2023-04-12T04:33:33.753Z,20.10
2023-04-12T04:34:37.657Z,19.80
2023-04-12T04:35:45.910Z,22.40
2023-04-12T04:37:02.783Z,20.30
2023-04-12T04:38:05.793Z,17.50
2023-04-12T04:39:10.064Z,19.60
2023-04-12T04:40:21.453Z,18.90
2023-04-12T04:41:26.418Z,20.50
2023-04-12T04:42:33.014Z,19.20
2023-04-12T04:43:46.882Z,23.90
2023-04-12T04:45:02.631Z,20.20
2023-04-12T04:46:07.300Z,23.00
2023-04-12T04:47:10.539Z,21.00
2023-04-12T04:48:13.475Z,19.00
2023-04-12T04:49:16.506Z,20.40
2023-04-12T04:50:24.157Z,19.60
2023-04-12T04:51:27.704Z,21.00
2023-04-12T04:52:31.058Z,21.00
2023-04-12T04:53:38.484Z,19.80
2023-04-12T04:54:41.807Z,19.40
2023-04-12T04:55:44.920Z,19.20
2023-04-12T04:56:47.795Z,18.40
2023-04-12T04:57:52.484Z,20.90
2023-04-12T04:58:57.017Z,19.70
2023-04-12T05:00:00.931Z,20.80
2023-04-12T05:01:05.300Z,19.70
2023-04-12T05:02:08.793Z,17.80
2023-04-12T05:03:12.070Z,17.60
2023-04-12T05:04:15.519Z,17.20
2023-04-12T05:05:18.558Z,20.00
2023-04-12T05:06:22.526Z,26.10
2023-04-12T05:07:26.252Z,20.80
2023-04-12T05:08:29.413Z,17.60
2023-04-12T05:09:32.305Z,20.20
2023-04-12T05:10:35.741Z,20.10
2023-04-12T05:11:39.057Z,23.10
2023-04-12T05:12:45.929Z,29.30
2023-04-12T05:13:50.319Z,18.10
2023-04-12T05:14:58.218Z,18.90
2023-04-12T05:16:12.410Z,20.20
2023-04-12T05:17:16.056Z,19.80
2023-04-12T05:18:22.003Z,18.10
2023-04-12T05:19:26.248Z,19.50
2023-04-12T05:20:29.801Z,21.30
2023-04-12T05:21:33.892Z,20.60
2023-04-12T05:22:36.783Z,19.80
2023-04-12T05:23:44.749Z,17.50
2023-04-12T05:24:48.651Z,18.90
2023-04-12T05:25:51.548Z,18.40
2023-04-12T05:26:54.710Z,18.80
2023-04-12T05:27:57.670Z,20.30
2023-04-12T05:29:01.793Z,18.80
2023-04-12T05:30:05.691Z,21.50
2023-04-12T05:31:09.596Z,18.50
2023-04-12T05:32:14.106Z,22.40
2023-04-12T05:33:17.305Z,20.40
2023-04-12T05:34:22.084Z,19.30
2023-04-12T05:35:31.547Z,28.10
2023-04-12T05:36:35.480Z,19.10
2023-04-12T05:37:39.452Z,19.00
2023-04-12T05:38:43.486Z,28.80
2023-04-12T05:39:48.356Z,17.50
2023-04-12T05:40:54.290Z,17.50
2023-04-12T05:41:59.533Z,30.00
2023-04-12T05:43:03.686Z,22.20
2023-04-12T05:44:07.627Z,21.60
2023-04-12T05:45:12.194Z,19.10
2023-04-12T05:46:16.124Z,19.60
2023-04-12T05:47:20.112Z,24.30
2023-04-12T05:48:23.593Z,22.60
2023-04-12T05:49:30.634Z,21.50
2023-04-12T05:50:34.533Z,27.40
2023-04-12T05:51:41.271Z,21.20
2023-04-12T05:52:51.070Z,19.80
2023-04-12T05:53:55.150Z,19.60
2023-04-12T05:54:58.507Z,20.20
2023-04-12T05:56:02.151Z,21.40
2023-04-12T05:57:05.710Z,27.10
2023-04-12T05:58:09.008Z,22.00
2023-04-12T05:59:12.514Z,19.00
2023-04-12T06:00:18.983Z,18.70
2023-04-12T06:01:22.041Z,21.10
2023-04-12T06:02:26.335Z,22.00
2023-04-12T06:03:31.377Z,19.60
2023-04-12T06:04:50.380Z,20.40
2023-04-12T06:05:54.259Z,21.90
2023-04-12T06:06:57.838Z,21.70
2023-04-12T06:08:01.003Z,27.10
2023-04-12T06:09:05.040Z,23.70
2023-04-12T06:10:10.071Z,20.80
2023-04-12T06:11:13.301Z,22.00
2023-04-12T06:12:18.214Z,21.60
2023-04-12T06:13:21.594Z,19.40
2023-04-12T06:14:24.658Z,19.30
2023-04-12T06:15:27.702Z,20.00
2023-04-12T06:16:30.841Z,21.70
2023-04-12T06:17:34.680Z,22.80
2023-04-12T06:18:38.243Z,20.90
2023-04-12T06:19:41.516Z,23.60
2023-04-12T06:20:45.698Z,21.90
2023-04-12T06:21:49.058Z,22.30
2023-04-12T06:22:51.931Z,24.60
2023-04-12T06:23:54.885Z,22.00
2023-04-12T06:24:58.752Z,23.20
2023-04-12T06:26:01.702Z,22.70
2023-04-12T06:27:05.055Z,23.00
2023-04-12T06:28:08.248Z,22.60
2023-04-12T06:29:18.515Z,20.80
2023-04-12T06:30:22.476Z,22.60
2023-04-12T06:31:28.499Z,22.10
2023-04-12T06:32:32.373Z,25.10
2023-04-12T06:33:36.889Z,30.00
2023-04-12T06:34:43.562Z,23.00
2023-04-12T06:35:50.606Z,24.00
2023-04-12T06:36:53.620Z,22.80
2023-04-12T06:37:56.529Z,23.90
2023-04-12T06:38:59.667Z,21.90
2023-04-12T06:40:02.500Z,23.00
2023-04-12T06:41:06.305Z,24.30
2023-04-12T06:42:09.188Z,22.00
2023-04-12T06:43:19.228Z,23.70
2023-04-12T06:44:22.143Z,30.10
2023-04-12T06:45:25.090Z,23.50
2023-04-12T06:46:28.903Z,20.20
2023-04-12T06:47:32.876Z,22.60
2023-04-12T06:48:35.889Z,25.90
2023-04-12T06:49:39.690Z,20.70
2023-04-12T06:50:42.545Z,22.50
2023-04-12T06:51:46.007Z,24.20
2023-04-12T06:52:48.984Z,21.20
2023-04-12T06:53:51.805Z,19.10
2023-04-12T06:54:56.998Z,22.20
2023-04-12T06:56:04.207Z,21.80
2023-04-12T06:57:13.901Z,20.80
2023-04-12T06:59:19.871Z,22.60
2023-04-12T07:00:23.045Z,21.10
2023-04-12T07:01:26.068Z,22.40
2023-04-12T07:02:29.178Z,21.10
2023-04-12T07:03:33.475Z,20.70
2023-04-12T07:04:36.718Z,21.50
2023-04-12T07:05:39.731Z,19.40
2023-04-12T07:06:42.763Z,22.70
2023-04-12T07:07:45.612Z,21.90
2023-04-12T07:08:48.491Z,18.90
2023-04-12T07:09:53.099Z,22.60
2023-04-12T07:10:56.130Z,20.40
2023-04-12T07:12:00.461Z,21.30
2023-04-12T07:13:07.185Z,20.00
2023-04-12T07:14:10.039Z,19.70
2023-04-12T07:15:12.914Z,20.20
2023-04-12T07:16:16.054Z,24.70
2023-04-12T07:17:19.115Z,22.00
2023-04-12T07:18:22.052Z,21.10
2023-04-12T07:19:24.931Z,22.70
2023-04-12T07:20:27.860Z,23.20
2023-04-12T07:21:30.785Z,19.30
2023-04-12T07:22:33.765Z,20.10
2023-04-12T07:23:36.621Z,22.40
2023-04-12T07:24:39.483Z,20.40
2023-04-12T07:25:42.486Z,19.40
2023-04-12T07:26:45.329Z,21.90
2023-04-12T07:27:49.914Z,18.30
2023-04-12T07:28:55.084Z,19.50
2023-04-12T07:29:58.874Z,22.60
2023-04-12T07:31:04.808Z,20.20
2023-04-12T07:32:09.098Z,18.60
2023-04-12T07:33:19.225Z,18.60
2023-04-12T07:34:24.426Z,21.10
2023-04-12T07:35:27.526Z,19.50
2023-04-12T07:36:31.444Z,21.20
2023-04-12T07:37:35.971Z,19.20
2023-04-12T07:38:38.970Z,17.90
2023-04-12T07:39:41.875Z,18.20
2023-04-12T07:40:45.146Z,17.80
2023-04-12T07:41:49.677Z,18.00
2023-04-12T07:42:52.528Z,18.90
2023-04-12T07:43:55.382Z,19.50
2023-04-12T07:44:58.296Z,21.00
2023-04-12T07:46:04.642Z,20.60
2023-04-12T07:47:07.569Z,17.90
2023-04-12T07:48:11.984Z,18.50
2023-04-12T07:49:14.888Z,17.30
2023-04-12T07:50:17.876Z,16.70
2023-04-12T07:51:20.764Z,20.80
2023-04-12T07:52:23.720Z,16.80
2023-04-12T07:53:28.733Z,18.90
2023-04-12T07:54:31.652Z,16.70
2023-04-12T07:55:34.480Z,17.00
2023-04-12T07:56:37.435Z,20.60
2023-04-12T07:57:41.162Z,17.70
2023-04-12T07:58:44.044Z,19.00
2023-04-12T07:59:47.053Z,20.00
2023-04-12T08:00:51.127Z,18.60
2023-04-12T08:01:54.055Z,18.30
2023-04-12T08:02:57.067Z,18.30
2023-04-12T08:04:00.519Z,17.60
2023-04-12T08:05:03.693Z,18.20
2023-04-12T08:06:07.906Z,19.50
2023-04-12T08:07:10.881Z,18.90
2023-04-12T08:08:13.743Z,17.30
2023-04-12T08:09:16.667Z,20.20
2023-04-12T08:10:19.917Z,20.80
2023-04-12T08:11:22.780Z,16.80
2023-04-12T08:12:26.261Z,17.70
2023-04-12T08:13:29.178Z,16.50
2023-04-12T08:14:32.015Z,18.40
2023-04-12T08:15:35.016Z,15.80
2023-04-12T08:16:37.912Z,17.80
2023-04-12T08:17:43.978Z,15.70
2023-04-12T08:18:46.999Z,15.90
2023-04-12T08:19:49.831Z,18.60
2023-04-12T08:20:52.755Z,18.80
2023-04-12T08:21:55.735Z,16.50
2023-04-12T08:22:58.904Z,18.50
2023-04-12T08:24:01.861Z,17.30
2023-04-12T08:25:05.036Z,17.00
2023-04-12T08:26:07.871Z,18.30
2023-04-12T08:27:13.912Z,16.60
2023-04-12T08:28:17.002Z,16.80
2023-04-12T08:29:19.891Z,17.50
2023-04-12T08:30:26.871Z,19.00
2023-04-12T08:31:29.958Z,16.60
2023-04-12T08:32:32.954Z,17.20
2023-04-12T08:33:35.899Z,16.50
2023-04-12T08:34:39.687Z,16.50
2023-04-12T08:35:42.548Z,16.90
2023-04-12T08:36:45.916Z,16.80
2023-04-12T08:37:49.268Z,17.70
2023-04-12T08:38:53.231Z,17.00
2023-04-12T08:39:56.232Z,17.00
2023-04-12T08:40:59.360Z,17.00
2023-04-12T08:42:04.965Z,17.00
2023-04-12T08:43:11.485Z,15.10
2023-04-12T08:44:15.639Z,17.70
2023-04-12T08:45:18.534Z,16.50
2023-04-12T08:46:22.157Z,17.60
2023-04-12T08:47:25.097Z,15.50
2023-04-12T08:48:29.079Z,17.10
2023-04-12T08:49:33.276Z,16.60
2023-04-12T08:50:39.815Z,19.10
2023-04-12T08:51:43.420Z,18.30
2023-04-12T08:52:48.936Z,17.10
2023-04-12T08:53:54.172Z,17.70
2023-04-12T08:54:57.061Z,17.10
2023-04-12T08:56:00.246Z,18.60
2023-04-12T08:57:08.293Z,18.20
2023-04-12T08:58:14.536Z,19.30
2023-04-12T08:59:17.800Z,20.30
2023-04-12T09:00:21.648Z,18.50
2023-04-12T09:01:25.114Z,17.10
2023-04-12T09:02:28.744Z,17.30
2023-04-12T09:03:33.705Z,16.50
2023-04-12T09:04:48.782Z,16.20
2023-04-12T09:05:51.775Z,17.10
2023-04-12T09:06:54.844Z,14.90
2023-04-12T09:07:58.702Z,14.90
2023-04-12T09:10:09.841Z,15.50
2023-04-12T09:11:30.929Z,16.50
2023-04-12T09:12:34.021Z,18.10
2023-04-12T09:13:37.255Z,16.80
2023-04-12T09:14:43.691Z,15.80
2023-04-12T09:15:50.822Z,20.00
2023-04-12T09:16:53.747Z,19.50
2023-04-12T09:18:06.182Z,16.80
2023-04-12T09:19:09.608Z,20.20
2023-04-12T09:20:12.529Z,18.30
2023-04-12T09:21:15.512Z,16.00
2023-04-12T09:22:18.802Z,16.60
2023-04-12T09:23:26.529Z,18.10
2023-04-12T09:24:29.978Z,17.40
2023-04-12T09:25:53.997Z,17.30
2023-04-12T09:27:05.076Z,24.00
2023-04-12T09:28:27.922Z,18.60
2023-04-12T09:29:31.556Z,20.40
2023-04-12T09:30:44.946Z,21.80
2023-04-12T09:32:04.850Z,19.10
2023-04-12T09:33:13.664Z,18.40
2023-04-12T09:34:16.572Z,21.40
2023-04-12T09:35:33.138Z,17.50
2023-04-12T09:36:40.125Z,16.10
2023-04-12T09:37:43.172Z,17.80
2023-04-12T09:39:04.258Z,17.90
2023-04-12T09:40:09.388Z,20.40
2023-04-12T09:41:20.240Z,16.60
2023-04-12T09:42:32.985Z,18.10
2023-04-12T09:43:38.694Z,16.40
2023-04-12T09:44:41.652Z,19.00
2023-04-12T09:45:44.645Z,14.90
2023-04-12T09:46:52.264Z,16.80
2023-04-12T09:47:55.533Z,22.20
2023-04-12T09:48:59.354Z,18.00
2023-04-12T09:50:04.688Z,17.00
2023-04-12T09:51:08.253Z,17.10
2023-04-12T09:52:12.870Z,18.20
2023-04-12T09:53:20.269Z,16.40
2023-04-12T09:54:24.022Z,15.80
2023-04-12T09:55:28.798Z,15.70
2023-04-12T09:56:33.948Z,14.90
2023-04-12T09:57:42.321Z,13.90
2023-04-12T09:58:46.969Z,14.30
2023-04-12T09:59:52.779Z,14.60
2023-04-12T10:00:59.805Z,15.10
2023-04-12T10:02:07.298Z,14.60
2023-04-12T10:03:10.622Z,14.00
2023-04-12T10:04:14.298Z,14.60
2023-04-12T10:05:19.674Z,13.30
2023-04-12T10:06:22.987Z,12.50
2023-04-12T10:07:27.342Z,13.70
2023-04-12T10:08:31.783Z,13.00
2023-04-12T10:09:37.735Z,13.00
2023-04-12T10:10:40.685Z,14.20
2023-04-12T10:11:45.452Z,14.30
2023-04-12T10:12:49.775Z,13.30
2023-04-12T10:13:52.777Z,12.10
2023-04-12T10:14:56.151Z,13.10
2023-04-12T10:16:00.457Z,15.90
2023-04-12T10:17:05.423Z,14.20
2023-04-12T10:18:11.379Z,12.70
2023-04-12T10:19:15.057Z,13.80
2023-04-12T10:20:19.785Z,15.00
2023-04-12T10:21:23.158Z,12.60
2023-04-12T10:22:26.793Z,13.60
2023-04-12T10:23:32.289Z,12.60
2023-04-12T10:24:35.246Z,12.80
2023-04-12T10:25:42.939Z,14.20
2023-04-12T10:26:46.025Z,13.20
2023-04-12T10:27:49.444Z,11.80
2023-04-12T10:29:27.107Z,16.00
2023-04-12T10:30:31.962Z,13.40
2023-04-12T10:31:35.209Z,12.80
2023-04-12T10:32:38.174Z,13.40
2023-04-12T10:33:42.989Z,17.20
2023-04-12T10:34:51.807Z,14.10
2023-04-12T10:36:00.702Z,12.90
2023-04-12T10:37:04.471Z,14.20
2023-04-12T10:38:07.331Z,12.40
2023-04-12T10:39:11.311Z,11.60
2023-04-12T10:40:19.260Z,11.90
2023-04-12T10:41:22.470Z,12.80
2023-04-12T10:42:29.610Z,13.80
2023-04-12T10:43:36.076Z,11.70
2023-04-12T10:44:38.961Z,12.30
2023-04-12T10:45:42.058Z,12.70
2023-04-12T10:46:44.909Z,12.70
2023-04-12T10:48:01.890Z,11.60
2023-04-12T10:49:09.825Z,11.80
2023-04-12T10:50:24.534Z,14.10
2023-04-12T10:51:28.641Z,11.90
2023-04-12T10:52:41.799Z,16.40
2023-04-12T10:53:46.869Z,12.90
2023-04-12T10:54:58.185Z,12.70
2023-04-12T10:56:01.272Z,13.10
2023-04-12T10:57:07.086Z,12.20
2023-04-12T10:58:48.966Z,17.60
2023-04-12T10:59:59.653Z,11.80
2023-04-12T11:01:11.764Z,13.00
2023-04-12T11:02:15.983Z,14.10
2023-04-12T11:03:23.419Z,27.90
2023-04-12T11:04:27.148Z,12.40
2023-04-12T11:06:19.925Z,11.80
2023-04-12T11:08:07.546Z,11.40
2023-04-12T11:09:28.640Z,13.90
2023-04-12T11:10:31.909Z,10.50
2023-04-12T11:11:35.249Z,11.60
2023-04-12T11:12:39.345Z,11.00
2023-04-12T11:13:42.652Z,15.40
2023-04-12T11:14:48.350Z,10.50
2023-04-12T11:15:57.024Z,11.30
2023-04-12T11:17:23.974Z,10.90
2023-04-12T11:18:28.053Z,11.30
2023-04-12T11:19:35.034Z,14.00
2023-04-12T11:20:39.736Z,13.90
2023-04-12T11:21:43.648Z,13.80
2023-04-12T11:22:46.626Z,13.10
2023-04-12T11:23:51.126Z,15.40
2023-04-12T11:24:56.719Z,11.30
2023-04-12T11:25:59.687Z,11.50
2023-04-12T11:27:03.279Z,12.80
2023-04-12T11:28:17.235Z,14.80
2023-04-12T11:29:24.630Z,12.90
2023-04-12T11:30:27.466Z,12.20
2023-04-12T11:31:30.309Z,12.60
2023-04-12T11:32:34.865Z,11.30
2023-04-12T11:33:40.094Z,10.80
2023-04-12T11:34:45.303Z,11.10
2023-04-12T11:35:48.682Z,11.70
2023-04-12T11:36:55.086Z,10.90
2023-04-12T11:37:58.511Z,12.10
2023-04-12T11:39:02.071Z,10.80
2023-04-12T11:40:05.867Z,11.80
2023-04-12T11:41:09.173Z,14.10
2023-04-12T11:42:16.372Z,11.30
2023-04-12T11:43:22.431Z,12.80
2023-04-12T11:44:25.741Z,14.80
2023-04-12T11:45:31.586Z,11.70
2023-04-12T11:46:35.678Z,12.70
2023-04-12T11:47:43.706Z,12.00
2023-04-12T11:48:47.195Z,12.20
2023-04-12T11:49:54.231Z,14.30
2023-04-12T11:51:10.161Z,11.60
2023-04-12T11:52:15.261Z,14.60
2023-04-12T11:53:19.569Z,13.30
2023-04-12T11:54:32.453Z,13.60
2023-04-12T11:55:35.655Z,12.30
2023-04-12T11:56:38.838Z,11.20
2023-04-12T11:57:41.743Z,13.70
2023-04-12T11:58:47.849Z,12.20
2023-04-12T11:59:50.841Z,12.10
2023-04-12T12:00:54.854Z,11.00
2023-04-12T12:01:58.790Z,12.50
2023-04-12T12:03:07.695Z,19.10
2023-04-12T12:04:11.808Z,17.90
2023-04-12T12:05:15.059Z,11.70
2023-04-12T12:06:19.876Z,10.80
2023-04-12T12:07:24.435Z,11.00
2023-04-12T12:08:27.760Z,11.30
2023-04-12T12:09:31.440Z,11.10
2023-04-12T12:10:55.506Z,10.20
2023-04-12T12:12:02.885Z,12.10
2023-04-12T12:13:12.765Z,13.70
2023-04-12T12:14:19.774Z,11.80
2023-04-12T12:15:22.591Z,11.90
2023-04-12T12:16:30.609Z,11.50
2023-04-12T12:17:38.682Z,9.60
2023-04-12T12:18:50.278Z,11.70
2023-04-12T12:19:58.254Z,12.90
2023-04-12T12:21:01.391Z,11.70
2023-04-12T12:22:14.356Z,11.80
2023-04-12T12:23:33.457Z,10.80
2023-04-12T12:24:39.750Z,10.30
2023-04-12T12:25:48.215Z,9.80
2023-04-12T12:26:51.243Z,13.40
2023-04-12T12:27:57.838Z,10.60
2023-04-12T12:29:01.261Z,11.80
2023-04-12T12:30:07.538Z,12.10
2023-04-12T12:31:11.437Z,10.70
2023-04-12T12:32:15.122Z,12.00
2023-04-12T12:33:24.821Z,10.60
2023-04-12T12:34:34.967Z,10.80
2023-04-12T12:35:38.118Z,11.10
2023-04-12T12:36:40.938Z,10.70
2023-04-12T12:37:56.097Z,10.30
2023-04-12T12:39:20.251Z,10.20
2023-04-12T12:40:32.618Z,12.70
2023-04-12T12:41:36.215Z,9.90
2023-04-12T12:42:56.346Z,13.60
2023-04-12T12:44:00.325Z,11.20
2023-04-12T12:45:04.837Z,11.70
2023-04-12T12:46:07.740Z,11.70
2023-04-12T12:47:14.534Z,11.40
2023-04-12T12:48:19.536Z,10.60
2023-04-12T12:49:22.534Z,10.60
2023-04-12T12:50:27.549Z,10.20
2023-04-12T12:51:31.573Z,10.90
2023-04-12T12:52:34.513Z,11.00
2023-04-12T12:53:38.435Z,10.60
2023-04-12T12:54:42.043Z,11.20
2023-04-12T12:55:44.966Z,11.10
2023-04-12T12:56:47.964Z,11.30
2023-04-12T12:58:07.371Z,12.10
2023-04-12T12:59:10.741Z,11.90
2023-04-12T13:00:15.410Z,15.90
2023-04-12T13:01:18.329Z,13.40
2023-04-12T13:02:21.398Z,12.20
2023-04-12T13:03:24.719Z,12.30
2023-04-12T13:04:28.225Z,10.20
2023-04-12T13:05:31.258Z,11.90
2023-04-12T13:06:34.093Z,12.30
2023-04-12T13:07:37.055Z,14.70
2023-04-12T13:08:39.956Z,12.30
2023-04-12T13:09:42.931Z,11.90
2023-04-12T13:10:45.838Z,13.10
2023-04-12T13:11:54.780Z,11.90
2023-04-12T13:12:58.846Z,11.00
2023-04-12T13:14:02.032Z,12.70
2023-04-12T13:15:18.121Z,13.50
2023-04-12T13:16:26.819Z,12.50
2023-04-12T13:17:31.291Z,14.10
2023-04-12T13:18:34.180Z,12.40
2023-04-12T13:19:37.362Z,12.40
2023-04-12T13:20:40.283Z,15.90
2023-04-12T13:21:43.150Z,12.00
2023-04-12T13:22:46.126Z,12.30
2023-04-12T13:23:49.019Z,12.40
2023-04-12T13:24:51.905Z,12.10
2023-04-12T13:25:54.794Z,11.50
2023-04-12T13:26:58.363Z,10.90
2023-04-12T13:28:01.222Z,11.30
2023-04-12T13:29:04.050Z,11.40
2023-04-12T13:30:07.588Z,11.40
2023-04-12T13:31:10.672Z,10.70
2023-04-12T13:32:14.288Z,10.70
2023-04-12T13:33:21.006Z,10.70
2023-04-12T13:34:25.049Z,10.50
2023-04-12T13:35:27.897Z,11.30
2023-04-12T13:36:31.140Z,10.70
2023-04-12T13:37:34.380Z,11.60
2023-04-12T13:38:37.224Z,11.90
2023-04-12T13:39:40.407Z,11.00
2023-04-12T13:40:43.317Z,10.60
2023-04-12T13:41:46.258Z,10.70
2023-04-12T13:42:49.114Z,11.90
2023-04-12T13:43:52.073Z,10.10
2023-04-12T13:44:54.970Z,10.30
2023-04-12T13:45:57.906Z,10.10
2023-04-12T13:47:00.981Z,11.20
2023-04-12T13:48:04.059Z,12.60
2023-04-12T13:49:07.057Z,11.50
2023-04-12T13:50:10.497Z,11.10
2023-04-12T13:51:13.377Z,10.30
2023-04-12T13:52:16.237Z,14.00
2023-04-12T13:53:19.085Z,9.90
2023-04-12T13:54:22.058Z,10.50
2023-04-12T13:55:25.001Z,10.20
2023-04-12T13:56:30.680Z,9.90
2023-04-12T13:57:35.072Z,9.70
2023-04-12T13:58:39.986Z,10.40
2023-04-12T13:59:43.018Z,10.00
2023-04-12T14:00:46.130Z,10.10
2023-04-12T14:01:49.214Z,10.10
2023-04-12T14:02:52.331Z,9.90
2023-04-12T14:03:55.883Z,10.90
2023-04-12T14:05:00.203Z,10.90
2023-04-12T14:06:03.399Z,10.40
2023-04-12T14:07:06.218Z,10.80
2023-04-12T14:08:09.027Z,11.90
2023-04-12T14:09:25.408Z,12.40
2023-04-12T14:10:28.391Z,13.00
2023-04-12T14:11:31.340Z,11.50
2023-04-12T14:12:34.150Z,12.00
2023-04-12T14:13:37.110Z,12.00